Time;durP1;ratioP1;P1;durP2;ratioP2;P2;SDS_P1;SDS_P2;PMS_P1;PMS_P2;Temp;Humidity;BMP_temperature;BMP_pressure;BME280_temperature;BME280_humidity;BME280_pressure;Samples;Min_cycle;Max_cycle;Signal;HPM_P1;HPM_P2
2021/01/28 00:00:25;;;;;;;48.40;17.52;;;;;;;5.03;96.96;101101.19;5019963;28;20505;-80
2021/01/28 00:02:50;;;;;;;48.83;17.43;;;;;;;5.05;97.00;101096.16;5046107;28;20064;-81
2021/01/28 00:05:17;;;;;;;50.77;18.90;;;;;;;5.07;96.87;101092.03;5070878;22;20071;-79
2021/01/28 00:07:42;;;;;;;54.70;20.67;;;;;;;5.09;96.95;101088.75;5100731;28;20309;-78
2021/01/28 00:10:10;;;;;;;51.40;19.00;;;;;;;5.09;97.17;101085.31;5082663;28;20109;-80
2021/01/28 00:12:35;;;;;;;48.93;17.80;;;;;;;5.25;96.63;101086.16;5101933;28;20028;-80
2021/01/28 00:15:00;;;;;;;55.33;17.25;;;;;;;5.22;96.89;101078.38;5101412;28;20023;-79
2021/01/28 00:17:26;;;;;;;44.65;16.33;;;;;;;5.14;96.48;101082.19;5093089;28;20026;-81
2021/01/28 00:19:51;;;;;;;58.67;16.47;;;;;;;5.09;96.51;101090.41;5095449;28;20051;-80
2021/01/28 00:22:16;;;;;;;73.50;19.70;;;;;;;5.04;96.62;101084.22;5096221;28;20274;-79
2021/01/28 00:24:42;;;;;;;59.63;20.08;;;;;;;5.04;96.61;101081.69;5094939;28;20095;-79
2021/01/28 00:27:07;;;;;;;89.28;20.63;;;;;;;5.03;96.51;101079.94;5095543;28;20419;-80
2021/01/28 00:29:32;;;;;;;67.80;22.93;;;;;;;5.06;96.73;101083.50;5094719;28;20028;-81
2021/01/28 00:31:58;;;;;;;94.87;22.07;;;;;;;5.05;96.76;101083.44;5094820;28;20297;-80
2021/01/28 00:34:23;;;;;;;153.88;23.08;;;;;;;5.06;96.88;101065.69;5094808;28;20404;-79
2021/01/28 00:36:48;;;;;;;444.42;28.92;;;;;;;5.14;97.37;101060.97;5095950;28;20569;-80
2021/01/28 00:39:14;;;;;;;146.02;22.75;;;;;;;5.14;97.28;101049.09;5095926;28;20028;-79
2021/01/28 00:41:39;;;;;;;89.47;20.33;;;;;;;5.16;97.41;101039.00;5094173;28;20385;-82
2021/01/28 00:44:04;;;;;;;87.13;21.37;;;;;;;5.12;97.12;101026.91;5094448;28;20520;-80
2021/01/28 00:46:30;;;;;;;359.33;25.90;;;;;;;5.13;97.73;101009.16;5095349;28;20678;-80
2021/01/28 00:48:56;;;;;;;372.52;25.48;;;;;;;5.06;97.72;101013.88;5095554;28;20274;-82
2021/01/28 00:51:21;;;;;;;495.67;30.77;;;;;;;4.98;98.05;101008.44;5093830;28;20071;-79
2021/01/28 00:53:46;;;;;;;387.23;27.73;;;;;;;5.03;97.91;101008.66;5094040;28;20270;-80
2021/01/28 00:56:11;;;;;;;261.47;23.20;;;;;;;5.13;98.24;100990.47;5093952;28;20024;-79
2021/01/28 00:58:37;;;;;;;151.45;23.55;;;;;;;5.23;97.97;101001.19;5089595;28;20314;-80
2021/01/28 01:01:03;;;;;;;103.13;20.73;;;;;;;5.20;97.87;100992.50;5095023;28;20051;-80
2021/01/28 01:03:29;;;;;;;106.67;20.60;;;;;;;5.14;97.91;100999.84;5093562;28;20338;-81
2021/01/28 01:05:55;;;;;;;138.40;20.73;;;;;;;5.09;97.81;100994.53;5093612;28;20028;-80
2021/01/28 01:08:26;;;;;;;153.38;20.52;;;;;;;5.07;97.74;100987.63;5092884;28;20047;-79
2021/01/28 01:10:54;;;;;;;134.20;20.67;;;;;;;5.22;97.63;100973.09;5092188;28;20492;-79
2021/01/28 01:13:40;;;;;;;123.83;18.43;;;;;;;5.21;97.82;100968.81;5093404;28;20498;-79
2021/01/28 01:16:07;;;;;;;119.63;19.40;;;;;;;5.16;97.80;100972.78;5094682;28;20031;-79
2021/01/28 01:18:34;;;;;;;188.77;19.77;;;;;;;5.11;97.51;100972.56;5094240;28;20115;-80
2021/01/28 01:21:01;;;;;;;175.67;19.33;;;;;;;5.09;97.74;100978.38;5093224;28;20012;-80
2021/01/28 01:23:27;;;;;;;74.10;17.43;;;;;;;5.08;97.38;100979.19;5093377;28;20153;-80
2021/01/28 01:25:53;;;;;;;350.25;22.98;;;;;;;5.08;97.83;100971.56;5094349;28;20705;-81
2021/01/28 01:28:18;;;;;;;234.32;19.95;;;;;;;5.08;97.60;100966.47;5092819;28;20052;-80
2021/01/28 01:30:44;;;;;;;95.53;19.75;;;;;;;5.08;97.57;100969.00;5093197;28;20389;-80
2021/01/28 01:33:09;;;;;;;244.68;20.33;;;;;;;5.09;97.87;100955.47;5093191;28;20023;-80
2021/01/28 01:35:34;;;;;;;80.93;18.48;;;;;;;5.08;97.79;100952.06;5092868;28;20020;-80
2021/01/28 01:38:01;;;;;;;176.30;19.50;;;;;;;5.11;97.77;100944.56;5092904;28;20093;-81
2021/01/28 01:40:36;;;;;;;177.03;20.97;;;;;;;5.20;97.63;100937.38;5092637;28;20024;-80
2021/01/28 01:43:02;;;;;;;83.80;18.80;;;;;;;5.20;97.94;100926.28;5091029;28;20020;-80
2021/01/28 01:45:32;;;;;;;132.23;18.00;;;;;;;5.19;97.92;100919.44;5091261;28;20043;-79
2021/01/28 01:48:21;;;;;;;161.83;19.23;;;;;;;5.18;98.12;100912.59;5094157;28;20050;-80
2021/01/28 01:51:03;;;;;;;431.17;25.67;;;;;;;5.17;97.97;100908.31;5074847;28;20036;-80
2021/01/28 01:53:38;;;;;;;278.50;22.33;;;;;;;5.10;98.02;100907.16;5092217;28;20363;-79
2021/01/28 01:56:12;;;;;;;78.47;19.90;;;;;;;5.17;98.40;100915.97;5091639;28;20027;-80
2021/01/28 01:59:11;;;;;;;229.27;22.70;;;;;;;5.15;98.24;100908.25;5092382;28;20035;-80
2021/01/28 02:01:42;;;;;;;334.70;23.60;;;;;;;5.14;98.05;100887.81;5031230;28;20572;-80
2021/01/28 02:04:08;;;;;;;195.97;21.77;;;;;;;5.08;98.35;100878.22;5091232;28;20393;-79
2021/01/28 02:06:44;;;;;;;120.30;20.27;;;;;;;5.14;98.38;100877.63;5092898;28;20062;-79
2021/01/28 02:09:11;;;;;;;394.25;25.98;;;;;;;5.13;98.42;100860.59;5089073;28;20023;-80
2021/01/28 02:11:38;;;;;;;189.37;22.17;;;;;;;5.07;98.71;100848.47;5093044;28;20385;-79
2021/01/28 02:14:05;;;;;;;276.73;25.07;;;;;;;5.05;98.41;100836.47;5094779;28;20060;-79
2021/01/28 02:16:38;;;;;;;285.03;31.70;;;;;;;5.02;98.62;100821.06;5090786;28;20020;-81
2021/01/28 02:19:31;;;;;;;374.17;50.77;;;;;;;4.97;98.61;100824.28;5090851;28;20016;-80
2021/01/28 02:22:00;;;;;;;349.03;27.63;;;;;;;4.96;99.02;100831.84;5090835;28;20114;-80
2021/01/28 02:24:34;;;;;;;100.00;21.37;;;;;;;5.02;98.73;100833.78;5091152;28;20028;-80
2021/01/28 02:27:01;;;;;;;227.67;25.10;;;;;;;5.02;98.79;100841.44;5093971;28;20107;-79
2021/01/28 02:29:27;;;;;;;310.93;23.30;;;;;;;5.05;99.04;100833.94;5091344;28;20039;-81
2021/01/28 02:31:54;;;;;;;267.27;44.15;;;;;;;4.98;98.77;100825.16;5092618;28;20044;-80
2021/01/28 02:34:21;;;;;;;526.13;61.17;;;;;;;4.95;98.79;100827.56;5090517;28;20020;-81
2021/01/28 02:36:49;;;;;;;269.90;25.50;;;;;;;4.99;99.04;100812.50;5092029;28;20016;-80
2021/01/28 02:39:17;;;;;;;152.93;21.93;;;;;;;4.98;99.07;100817.50;5092233;28;20420;-80
2021/01/28 02:41:46;;;;;;;172.50;28.90;;;;;;;4.99;98.83;100827.75;5089536;28;20418;-80
2021/01/28 02:44:12;;;;;;;108.97;26.03;;;;;;;4.99;98.90;100825.22;5093790;28;20109;-81
2021/01/28 02:46:38;;;;;;;118.13;22.83;;;;;;;4.98;98.88;100825.16;5093357;28;20048;-80
2021/01/28 02:49:03;;;;;;;267.00;21.67;;;;;;;4.95;98.84;100825.88;5091916;28;20118;-79
2021/01/28 02:51:29;;;;;;;154.55;19.50;;;;;;;5.16;98.95;100823.41;5093156;28;20032;-80
2021/01/28 02:53:55;;;;;;;210.63;21.20;;;;;;;5.13;98.89;100824.97;5093325;28;20530;-80
2021/01/28 02:56:27;;;;;;;268.30;21.98;;;;;;;5.07;98.21;100824.69;5091910;28;20270;-80
2021/01/28 02:58:52;;;;;;;240.47;21.57;;;;;;;4.86;98.62;100805.06;5089656;28;20030;-80
2021/01/28 03:01:19;;;;;;;427.70;26.50;;;;;;;4.76;98.54;100810.56;5092881;28;20020;-80
2021/01/28 03:03:45;;;;;;;186.13;22.53;;;;;;;4.80;98.44;100811.56;5091201;28;20051;-80
2021/01/28 03:06:11;;;;;;;325.70;25.92;;;;;;;4.92;98.56;100795.19;5092814;28;20056;-79
2021/01/28 03:08:37;;;;;;;360.10;24.63;;;;;;;4.81;98.66;100786.19;5091299;28;20473;-80
2021/01/28 03:11:02;;;;;;;;;;;;;;;4.89;98.77;100779.78;5091455;28;20436;-80
2021/01/28 03:13:28;;;;;;;85.00;18.10;;;;;;;4.95;98.47;100774.97;5091361;28;19912;-80
2021/01/28 03:15:54;;;;;;;100.90;19.95;;;;;;;4.96;98.54;100779.25;5091388;28;20054;-81
2021/01/28 03:18:20;;;;;;;253.88;22.48;;;;;;;4.86;98.31;100778.75;5091260;28;20031;-80
2021/01/28 03:20:46;;;;;;;132.18;20.67;;;;;;;4.77;98.49;100775.81;5092340;28;20428;-80
2021/01/28 03:23:11;;;;;;;;;;;;;;;4.77;98.31;100781.75;5092008;28;20483;-80
2021/01/28 03:25:37;;;;;;;266.57;36.10;;;;;;;4.78;98.45;100775.88;5091078;28;19954;-80
2021/01/28 03:28:04;;;;;;;406.92;32.60;;;;;;;4.76;98.98;100768.97;5091078;28;20066;-82
2021/01/28 03:30:35;;;;;;;197.87;27.27;;;;;;;4.77;98.69;100763.06;5090683;28;20460;-80
2021/01/28 03:33:02;;;;;;;216.87;26.23;;;;;;;4.88;99.10;100762.78;5090977;28;20080;-80
2021/01/28 03:35:28;;;;;;;176.20;25.43;;;;;;;4.88;98.86;100757.69;5090717;28;20133;-80
2021/01/28 03:37:53;;;;;;;181.45;27.60;;;;;;;4.86;98.80;100754.16;5090804;28;20064;-82
2021/01/28 03:40:25;;;;;;;266.83;27.83;;;;;;;4.89;98.81;100753.47;5091145;28;20016;-80
2021/01/28 03:42:50;;;;;;;227.47;25.83;;;;;;;4.82;99.08;100747.22;5089307;28;20114;-80
2021/01/28 03:45:16;;;;;;;196.35;23.25;;;;;;;4.81;99.39;100745.47;5090883;28;20115;-80
2021/01/28 03:47:42;;;;;;;163.85;23.05;;;;;;;4.76;98.97;100736.75;5091009;28;20024;-80
2021/01/28 03:50:11;;;;;;;216.82;26.20;;;;;;;4.74;99.07;100742.59;5090796;28;20031;-80
2021/01/28 03:52:37;;;;;;;177.27;24.63;;;;;;;4.69;99.01;100722.91;5094246;28;20027;-81
2021/01/28 03:55:03;;;;;;;241.05;25.90;;;;;;;4.70;99.31;100716.13;5095370;28;20607;-81
2021/01/28 03:57:28;;;;;;;286.35;29.65;;;;;;;4.69;99.04;100704.22;5095929;28;20111;-80
2021/01/28 03:59:53;;;;;;;301.75;47.35;;;;;;;4.66;99.22;100699.88;5096806;28;20132;-79
2021/01/28 04:02:19;;;;;;;231.50;28.63;;;;;;;4.69;99.24;100694.03;5097302;28;20020;-79
2021/01/28 04:04:44;;;;;;;213.70;27.20;;;;;;;4.68;99.27;100688.06;5095889;28;20055;-78
2021/01/28 04:07:09;;;;;;;229.00;27.07;;;;;;;4.70;99.21;100685.59;5097918;28;20069;-81
2021/01/28 04:09:34;;;;;;;228.35;35.47;;;;;;;4.72;99.36;100672.94;5099638;28;20296;-81
2021/01/28 04:12:00;;;;;;;277.48;37.35;;;;;;;4.72;99.54;100667.84;5101678;28;20102;-81
2021/01/28 04:14:25;;;;;;;334.33;46.08;;;;;;;4.71;99.45;100661.91;5098037;28;20055;-80
2021/01/28 04:16:50;;;;;;;259.87;42.60;;;;;;;4.73;99.54;100650.09;5098112;28;20030;-81
2021/01/28 04:19:16;;;;;;;256.13;38.30;;;;;;;4.73;99.60;100656.88;5096804;28;20024;-82
2021/01/28 04:21:41;;;;;;;181.55;31.23;;;;;;;4.77;99.54;100662.16;5098355;28;20690;-82
2021/01/28 04:24:07;;;;;;;208.57;29.40;;;;;;;4.81;99.56;100653.84;5094993;28;20047;-82
2021/01/28 04:26:34;;;;;;;182.77;29.52;;;;;;;4.78;99.66;100643.53;5095328;28;20027;-81
2021/01/28 04:29:00;;;;;;;277.47;33.07;;;;;;;4.75;99.44;100624.72;5094123;28;20031;-82
2021/01/28 04:31:25;;;;;;;230.85;30.40;;;;;;;4.65;99.55;100626.00;5098031;28;20071;-82
2021/01/28 04:34:09;;;;;;;243.88;30.40;;;;;;;4.72;99.51;100622.94;5099436;28;20405;-84
2021/01/28 04:36:35;;;;;;;207.23;31.60;;;;;;;4.65;99.68;100605.66;5099301;28;20103;-83
2021/01/28 04:39:08;;;;;;;324.30;34.88;;;;;;;4.65;99.62;100593.81;5099422;28;20549;-84
2021/01/28 04:41:38;;;;;;;224.80;36.47;;;;;;;4.66;99.50;100582.81;5098461;28;20016;-84
2021/01/28 04:44:13;;;;;;;245.80;36.77;;;;;;;4.69;99.58;100577.00;5097717;28;20036;-84
2021/01/28 04:46:52;;;;;;;240.13;36.63;;;;;;;4.74;99.83;100567.88;5096861;28;20051;-83
2021/01/28 04:49:22;;;;;;;275.03;38.73;;;;;;;4.72;99.65;100559.31;5100280;28;20023;-84
2021/01/28 04:51:58;;;;;;;291.13;39.67;;;;;;;4.74;99.85;100547.53;5097255;28;20107;-85
2021/01/28 04:54:30;;;;;;;176.95;29.67;;;;;;;4.77;99.90;100549.31;5101501;28;20031;-85
2021/01/28 04:57:05;;;;;;;254.60;39.07;;;;;;;4.77;99.70;100541.69;5097992;28;20024;-85
2021/01/28 04:59:39;;;;;;;255.00;39.77;;;;;;;4.82;99.73;100533.44;5100235;28;20031;-85
2021/01/28 05:02:07;;;;;;;242.37;38.60;;;;;;;4.82;100.00;100533.44;5098479;28;20038;-86
2021/01/28 05:04:46;;;;;;;200.27;36.80;;;;;;;4.82;100.00;100518.16;5100215;28;20028;-83
2021/01/28 05:07:20;;;;;;;216.97;39.57;;;;;;;4.86;100.00;100514.06;5102442;28;20032;-83
2021/01/28 05:10:20;;;;;;;221.40;39.27;;;;;;;4.84;100.00;100500.41;5100066;28;20028;-85
2021/01/28 05:12:55;;;;;;;198.63;37.57;;;;;;;4.84;99.95;100498.75;5051396;28;20488;-86
2021/01/28 05:15:27;;;;;;;245.70;41.33;;;;;;;4.85;100.00;100490.31;5100030;28;20077;-85
2021/01/28 05:18:15;;;;;;;201.20;37.23;;;;;;;4.84;99.93;100480.94;5099483;28;20032;-84
2021/01/28 05:20:41;;;;;;;206.73;39.57;;;;;;;4.84;99.97;100469.88;5098890;28;20458;-85
2021/01/28 05:23:30;;;;;;;180.05;36.65;;;;;;;4.85;99.76;100458.91;5101794;28;20047;-85
2021/01/28 05:25:55;;;;;;;199.03;35.97;;;;;;;4.82;99.96;100454.56;5100751;28;20541;-85
2021/01/28 05:28:27;;;;;;;176.73;36.55;;;;;;;4.85;100.00;100441.94;5102358;28;20106;-85
2021/01/28 05:30:54;;;;;;;172.17;35.00;;;;;;;4.85;100.00;100448.72;5101640;28;20020;-84
2021/01/28 05:33:33;;;;;;;188.38;37.97;;;;;;;4.89;100.00;100442.97;5101803;28;20393;-84
2021/01/28 05:36:11;;;;;;;178.13;35.20;;;;;;;4.87;100.00;100427.59;5099009;28;20028;-84
2021/01/28 05:38:45;;;;;;;172.37;34.87;;;;;;;4.88;100.00;100411.56;5103055;28;20427;-85
2021/01/28 05:41:24;;;;;;;175.03;33.80;;;;;;;4.92;100.00;100408.31;5098898;28;20024;-83
2021/01/28 05:43:49;;;;;;;171.13;32.30;;;;;;;4.92;100.00;100400.69;5099898;28;20477;-82
2021/01/28 05:46:27;;;;;;;144.20;32.37;;;;;;;4.92;99.96;100395.59;5102857;28;20035;-84
2021/01/28 05:49:03;;;;;;;153.53;33.77;;;;;;;4.91;100.00;100393.88;5101160;28;20300;-85
2021/01/28 05:51:42;;;;;;;138.90;31.93;;;;;;;4.95;100.00;100387.22;5099905;28;20054;-84
2021/01/28 05:54:18;;;;;;;127.27;30.67;;;;;;;4.95;100.00;100387.22;5100966;28;20051;-82
2021/01/28 05:57:17;;;;;;;130.38;29.63;;;;;;;4.96;100.00;100386.41;5100294;28;20051;-86
2021/01/28 05:59:46;;;;;;;133.23;31.27;;;;;;;4.96;100.00;100378.75;5099337;28;20050;-83
2021/01/28 06:02:14;;;;;;;131.97;29.67;;;;;;;4.99;100.00;100379.75;5098652;28;20381;-83
2021/01/28 06:05:06;;;;;;;130.23;30.00;;;;;;;4.98;100.00;100378.00;5100573;28;20035;-84
2021/01/28 06:07:57;;;;;;;118.70;28.93;;;;;;;5.02;100.00;100378.13;5097893;22;20044;-78
2021/01/28 06:10:38;;;;;;;135.77;29.97;;;;;;;4.98;100.00;100378.00;5071112;28;20024;-78
2021/01/28 06:13:32;;;;;;;132.63;31.07;;;;;;;5.03;100.00;100369.69;5055195;28;20020;-78
2021/01/28 06:16:05;;;;;;;112.37;28.40;;;;;;;5.06;100.00;100354.53;5086796;28;20024;-79
2021/01/28 06:18:43;;;;;;;121.33;28.43;;;;;;;5.04;100.00;100348.50;5064741;28;20024;-79
2021/01/28 06:21:40;;;;;;;113.50;27.67;;;;;;;5.06;100.00;100354.53;5065900;28;20504;-78
2021/01/28 06:24:35;;;;;;;93.93;24.98;;;;;;;5.05;99.99;100343.47;5079762;28;20341;-79
2021/01/28 06:27:33;;;;;;;108.13;25.63;;;;;;;5.04;100.00;100340.88;5090101;28;20671;-79
2021/01/28 06:30:09;;;;;;;89.32;25.23;;;;;;;5.06;100.00;100324.84;5086170;28;20025;-78
2021/01/28 06:32:53;;;;;;;82.63;22.90;;;;;;;5.06;99.78;100321.44;5065002;28;20020;-78
2021/01/28 06:35:43;;;;;;;78.50;23.97;;;;;;;5.06;100.00;100308.69;5089123;28;20034;-79
2021/01/28 06:38:39;;;;;;;84.53;23.70;;;;;;;5.10;99.82;100300.34;5084384;28;20084;-77
2021/01/28 06:41:13;;;;;;;76.07;21.83;;;;;;;5.07;99.73;100295.16;5055110;28;20059;-80
2021/01/28 06:44:09;;;;;;;79.17;21.77;;;;;;;5.08;99.98;100286.72;5057222;28;20048;-80
2021/01/28 06:46:56;;;;;;;68.23;20.83;;;;;;;5.04;99.82;100274.69;5063739;28;20028;-79
2021/01/28 06:49:43;;;;;;;61.10;19.80;;;;;;;5.04;99.88;100259.41;5093596;28;20374;-79
2021/01/28 06:52:28;;;;;;;58.70;17.63;;;;;;;5.03;99.76;100243.28;5086898;28;20107;-79
2021/01/28 06:55:01;;;;;;;62.43;17.70;;;;;;;5.01;99.66;100237.25;5084746;28;20024;-80
2021/01/28 06:57:51;;;;;;;61.07;19.53;;;;;;;5.00;99.55;100231.31;5059779;28;20024;-78
2021/01/28 07:00:33;;;;;;;63.77;18.60;;;;;;;5.03;99.56;100224.59;5079519;28;20025;-78
2021/01/28 07:03:27;;;;;;;53.27;16.47;;;;;;;5.01;99.41;100219.44;5056623;28;20048;-79
2021/01/28 07:06:04;;;;;;;60.03;17.63;;;;;;;5.00;99.62;100213.50;5062399;28;20389;-78
2021/01/28 07:08:48;;;;;;;;;;;;;;;5.00;99.42;100221.13;5059607;28;20058;-79
2021/01/28 07:11:31;;;;;;;46.87;15.67;;;;;;;4.98;99.55;100211.69;5071968;28;19994;-80
2021/01/28 07:13:59;;;;;;;52.50;17.17;;;;;;;4.95;99.30;100209.91;5072564;28;20095;-80
2021/01/28 07:16:54;;;;;;;49.20;16.10;;;;;;;4.95;99.59;100209.06;5058719;28;20031;-79
2021/01/28 07:19:23;;;;;;;47.80;14.83;;;;;;;4.96;99.38;100200.59;5033915;28;20043;-79
2021/01/28 07:21:52;;;;;;;43.30;13.77;;;;;;;4.98;99.20;100204.06;5077076;28;20040;-80
2021/01/28 07:24:23;;;;;;;42.37;12.67;;;;;;;4.96;99.44;100196.38;5055373;28;20070;-79
2021/01/28 07:26:55;;;;;;;32.20;11.80;;;;;;;4.96;99.32;100200.59;5088147;28;20039;-79
2021/01/28 07:29:56;;;;;;;29.60;10.73;;;;;;;5.00;99.24;100202.44;5084907;28;20025;-77
2021/01/28 07:32:21;;;;;;;26.67;10.17;;;;;;;4.98;98.99;100204.94;5039559;28;20036;-79
2021/01/28 07:35:24;;;;;;;33.77;12.23;;;;;;;4.99;98.97;100201.56;5073278;28;20070;-80
2021/01/28 07:37:51;;;;;;;32.93;10.73;;;;;;;4.99;99.00;100195.63;5068534;28;20028;-77
2021/01/28 07:40:56;;;;;;;31.27;12.07;;;;;;;4.97;98.88;100200.66;5065369;28;20390;-80
2021/01/28 07:43:32;;;;;;;33.37;12.23;;;;;;;4.99;98.92;100196.47;5061914;28;20119;-78
2021/01/28 07:46:16;;;;;;;27.17;11.80;;;;;;;4.96;98.71;100186.19;5075588;28;20024;-79
2021/01/28 07:48:42;;;;;;;21.57;9.10;;;;;;;4.97;98.57;100197.25;5084931;28;20037;-78
2021/01/28 07:51:29;;;;;;;21.45;8.38;;;;;;;4.94;98.57;100187.81;5059743;28;20029;-79
2021/01/28 07:53:54;;;;;;;;;;;;;;;4.94;98.82;100189.50;5074655;28;20039;-78
2021/01/28 07:56:35;;;;;;;21.77;7.93;;;;;;;4.92;98.45;100179.28;5073233;28;19916;-80
2021/01/28 07:59:08;;;;;;;21.90;8.53;;;;;;;4.93;98.55;100178.47;5060859;28;20041;-78
2021/01/28 08:01:34;;;;;;;28.53;11.13;;;;;;;4.95;98.25;100173.41;5062950;28;20025;-78
2021/01/28 08:04:06;;;;;;;26.98;11.75;;;;;;;4.92;98.15;100175.84;5092405;28;20032;-79
2021/01/28 08:06:33;;;;;;;24.20;11.03;;;;;;;4.91;98.46;100177.53;5090044;28;20485;-77
2021/01/28 08:09:08;;;;;;;29.53;14.20;;;;;;;4.90;98.01;100170.72;5062782;28;20035;-78
2021/01/28 08:11:34;;;;;;;29.10;11.13;;;;;;;4.89;98.37;100171.53;5082943;28;20020;-79
2021/01/28 08:14:00;;;;;;;22.77;7.67;;;;;;;4.88;98.15;100161.28;5077314;28;20432;-79
2021/01/28 08:16:26;;;;;;;29.08;11.65;;;;;;;4.85;97.98;100156.06;5083486;28;20115;-79
2021/01/28 08:19:02;;;;;;;22.20;8.38;;;;;;;4.84;98.12;100150.13;5090168;28;20099;-78
2021/01/28 08:21:29;;;;;;;18.58;7.97;;;;;;;4.84;97.98;100150.13;5074650;28;20492;-79
2021/01/28 08:24:07;;;;;;;25.77;10.67;;;;;;;4.82;98.08;100151.75;5065007;28;20393;-81
2021/01/28 08:26:33;;;;;;;22.43;8.87;;;;;;;4.79;98.20;100138.91;5066431;28;20074;-78
2021/01/28 08:29:10;;;;;;;35.05;17.05;;;;;;;4.80;98.09;100142.31;5085453;28;20409;-80
2021/01/28 08:31:38;;;;;;;20.00;9.97;;;;;;;4.77;98.40;100138.00;5081115;28;20028;-80
2021/01/28 08:34:06;;;;;;;22.83;9.03;;;;;;;4.78;98.19;100129.56;5094197;28;20107;-80
2021/01/28 08:36:54;;;;;;;16.50;6.70;;;;;;;4.76;98.09;100126.09;5058716;28;20032;-79
2021/01/28 08:39:28;;;;;;;15.03;6.43;;;;;;;4.72;98.17;100119.16;5079165;28;20020;-79
2021/01/28 08:42:09;;;;;;;21.83;6.63;;;;;;;4.71;98.39;100112.34;5067588;28;20035;-78
2021/01/28 08:44:36;;;;;;;18.97;7.23;;;;;;;4.72;97.90;100111.53;5075632;28;20027;-79
2021/01/28 08:47:18;;;;;;;14.93;6.47;;;;;;;4.74;98.19;100107.34;5060124;28;20517;-80
2021/01/28 08:49:45;;;;;;;21.77;11.47;;;;;;;4.73;98.08;100100.53;5080781;28;20046;-80
2021/01/28 08:52:17;;;;;;;22.07;9.27;;;;;;;4.72;98.23;100096.25;5055841;28;20028;-80
2021/01/28 08:54:45;;;;;;;20.03;7.37;;;;;;;4.72;97.99;100095.41;5062760;28;20093;-78
2021/01/28 08:57:14;;;;;;;16.27;6.97;;;;;;;4.72;98.18;100101.34;5088520;28;20051;-79
2021/01/28 08:59:42;;;;;;;16.03;6.50;;;;;;;4.71;98.08;100106.38;5085754;28;20024;-79
2021/01/28 09:02:13;;;;;;;16.80;7.30;;;;;;;4.74;98.16;100109.91;5083459;28;20028;-80
2021/01/28 09:04:43;;;;;;;16.30;6.80;;;;;;;4.71;98.19;100102.16;5081581;28;20025;-80
2021/01/28 09:07:09;;;;;;;17.77;8.40;;;;;;;4.72;98.15;100098.81;5092524;28;20046;-79
2021/01/28 09:09:35;;;;;;;;;;;;;;;4.74;98.10;100096.31;5078425;28;20074;-81
2021/01/28 09:12:27;;;;;;;18.87;8.50;;;;;;;4.71;98.08;100097.06;5095000;28;20266;-79
2021/01/28 09:15:11;;;;;;;25.80;9.83;;;;;;;4.76;98.12;100094.69;5079726;28;20032;-80
2021/01/28 09:17:37;;;;;;;29.30;10.73;;;;;;;4.77;98.18;100097.28;5054356;28;20024;-78
2021/01/28 09:20:04;;;;;;;45.17;25.57;;;;;;;4.77;98.24;100089.66;5071838;28;20095;-77
2021/01/28 09:22:35;;;;;;;26.47;11.60;;;;;;;4.76;98.14;100080.28;5071647;28;20054;-78
2021/01/28 09:25:18;;;;;;;22.17;12.37;;;;;;;4.78;97.83;100081.22;5058797;28;20032;-78
2021/01/28 09:27:44;;;;;;;21.77;10.60;;;;;;;4.80;97.71;100051.59;5086989;28;20047;-81
2021/01/28 09:30:21;;;;;;;22.92;11.02;;;;;;;4.79;97.74;100023.56;5068726;28;20463;-80
2021/01/28 09:32:47;;;;;;;24.60;12.63;;;;;;;4.77;97.77;100041.31;5061597;28;20097;-81
2021/01/28 09:35:25;;;;;;;26.05;12.85;;;;;;;4.76;97.86;100053.97;5069608;28;20024;-79
2021/01/28 09:38:14;;;;;;;22.97;11.27;;;;;;;4.77;97.54;100076.94;5064495;28;20054;-80
2021/01/28 09:40:43;;;;;;;18.83;10.37;;;;;;;4.72;97.82;100091.19;5068522;28;20035;-83
2021/01/28 09:43:31;;;;;;;22.20;10.83;;;;;;;4.77;97.57;100086.25;5086755;28;20048;-80
2021/01/28 09:46:04;;;;;;;20.40;11.03;;;;;;;4.74;97.65;100084.47;5065381;28;20051;-78
2021/01/28 09:48:29;;;;;;;18.10;10.50;;;;;;;4.72;97.46;100070.81;5065142;28;20043;-85
2021/01/28 09:50:55;;;;;;;16.27;8.93;;;;;;;4.72;97.17;100068.28;5067877;28;20016;-80
2021/01/28 09:53:21;;;;;;;21.48;11.57;;;;;;;4.72;97.28;100063.19;5087083;28;20032;-81
2021/01/28 09:55:46;;;;;;;;;;;;;;;4.70;97.15;100069.91;5085922;28;20024;-82
2021/01/28 09:58:12;;;;;;;20.03;10.67;;;;;;;4.76;97.54;100054.84;5064763;28;20007;-82
2021/01/28 10:00:37;;;;;;;19.30;11.02;;;;;;;4.72;97.26;100050.47;5079175;28;20036;-78
2021/01/28 10:03:06;;;;;;;17.17;9.70;;;;;;;4.74;97.08;100055.59;5073574;28;20494;-78
2021/01/28 10:05:33;;;;;;;22.70;12.43;;;;;;;4.74;97.45;100050.53;5073359;28;20125;-81
2021/01/28 10:07:59;;;;;;;20.33;11.30;;;;;;;4.72;97.28;100045.38;5063078;28;20051;-78
2021/01/28 10:10:28;;;;;;;20.43;11.37;;;;;;;4.70;97.21;100062.28;5086219;28;20017;-81
2021/01/28 10:12:57;;;;;;;17.40;10.93;;;;;;;4.72;97.33;100069.97;5066253;28;20492;-80
2021/01/28 10:15:26;;;;;;;14.90;9.60;;;;;;;4.71;97.22;100075.84;5084331;28;20032;-81
2021/01/28 10:17:52;;;;;;;18.10;10.93;;;;;;;4.71;97.68;100076.72;5068335;28;20122;-79
2021/01/28 10:20:18;;;;;;;17.00;10.70;;;;;;;4.71;97.47;100084.34;5068166;28;20487;-81
2021/01/28 10:22:43;;;;;;;18.73;10.75;;;;;;;4.75;97.54;100078.56;5067427;28;20028;-81
2021/01/28 10:25:11;;;;;;;24.02;14.32;;;;;;;4.75;97.37;100081.09;5086325;28;20069;-81
2021/01/28 10:27:37;;;;;;;27.77;16.37;;;;;;;4.77;97.45;100082.03;5087577;28;20023;-81
2021/01/28 10:30:06;;;;;;;;;;;;;;;4.78;97.39;100081.22;5064784;28;20024;-81
2021/01/28 10:32:31;;;;;;;17.73;10.77;;;;;;;4.78;97.65;100076.13;5067215;28;19927;-80
2021/01/28 10:34:58;;;;;;;20.73;11.68;;;;;;;4.80;97.53;100078.72;5083702;28;20021;-81
2021/01/28 10:37:23;;;;;;;;;;;;;;;4.75;97.60;100076.00;5070543;28;21256;-81
2021/01/28 10:39:48;;;;;;;28.57;17.77;;;;;;;4.82;97.53;100077.09;5063326;28;20013;-82
2021/01/28 10:42:17;;;;;;;27.83;18.10;;;;;;;4.78;97.76;100073.56;5058568;28;20092;-81
2021/01/28 10:44:43;;;;;;;29.77;18.13;;;;;;;4.81;97.73;100071.13;5060169;28;20549;-80
2021/01/28 10:47:08;;;;;;;30.02;19.50;;;;;;;4.82;97.96;100062.69;5064589;28;20032;-81
2021/01/28 10:49:33;;;;;;;22.98;14.35;;;;;;;4.83;98.15;100071.19;5082068;28;20028;-80
2021/01/28 10:51:59;;;;;;;22.83;12.83;;;;;;;4.83;97.74;100072.03;5062533;28;20032;-80
2021/01/28 10:54:24;;;;;;;24.03;14.70;;;;;;;4.87;98.01;100060.28;5082520;28;20080;-80
2021/01/28 10:56:49;;;;;;;21.90;12.50;;;;;;;4.83;97.96;100066.09;5079135;28;20286;-82
2021/01/28 10:59:14;;;;;;;22.80;13.53;;;;;;;4.83;98.10;100058.47;5081026;28;20684;-83
2021/01/28 11:01:40;;;;;;;22.30;12.40;;;;;;;4.85;98.00;100060.25;5057358;28;20278;-80
2021/01/28 11:04:05;;;;;;;23.20;13.50;;;;;;;4.86;98.31;100058.56;5082352;28;20029;-82
2021/01/28 11:06:30;;;;;;;21.95;13.38;;;;;;;4.87;98.13;100058.59;5083264;28;20016;-83
2021/01/28 11:08:56;;;;;;;23.80;13.60;;;;;;;4.88;98.22;100065.47;5059293;28;20024;-81
2021/01/28 11:11:21;;;;;;;18.50;11.77;;;;;;;4.89;98.20;100074.81;5063430;28;20040;-81
2021/01/28 11:13:47;;;;;;;22.77;12.82;;;;;;;4.88;97.91;100060.38;5079981;28;20116;-83
2021/01/28 11:16:13;;;;;;;20.80;13.02;;;;;;;4.89;98.13;100044.28;5082281;28;20111;-81
2021/01/28 11:18:38;;;;;;;27.25;15.18;;;;;;;4.93;98.13;100048.66;5066864;28;20081;-82
2021/01/28 11:21:04;;;;;;;22.57;12.50;;;;;;;4.97;98.13;100035.22;5066006;28;20047;-82
2021/01/28 11:23:29;;;;;;;29.63;19.27;;;;;;;4.96;98.14;100025.84;5085233;28;20679;-79
2021/01/28 11:25:54;;;;;;;18.80;11.17;;;;;;;4.97;97.97;100025.03;5059401;28;20028;-81
2021/01/28 11:28:19;;;;;;;25.90;14.80;;;;;;;4.97;98.20;100021.63;5087171;28;20266;-83
2021/01/28 11:30:45;;;;;;;22.90;11.80;;;;;;;4.96;98.16;100012.25;5070434;28;21096;-80
2021/01/28 11:33:10;;;;;;;18.38;10.90;;;;;;;4.92;97.87;100003.66;5066528;28;20282;-82
2021/01/28 11:35:37;;;;;;;17.10;10.02;;;;;;;4.88;98.02;100004.38;5084137;28;20088;-79